createdAt,value
2023-12-11T00:01:41.423Z,99556.23
2023-12-11T00:06:50.313Z,99545.95
2023-12-11T00:12:01.059Z,99545.07
2023-12-11T00:17:08.809Z,99538.02
2023-12-11T00:22:16.354Z,99527.32
2023-12-11T00:27:23.924Z,99524.88
2023-12-11T00:32:31.485Z,99516.81
2023-12-11T00:37:38.952Z,99512.45
2023-12-11T00:42:46.382Z,99507.71
2023-12-11T00:47:53.822Z,99504.13
2023-12-11T00:53:01.220Z,99500.88
2023-12-11T00:58:08.543Z,99497.26
2023-12-11T01:03:15.902Z,99496.16
2023-12-11T01:08:23.426Z,99498.97
2023-12-11T01:13:30.964Z,99496.91
2023-12-11T01:18:38.654Z,99495.84
2023-12-11T01:23:47.002Z,99491.36
2023-12-11T01:28:54.709Z,99493.09
2023-12-11T01:34:02.676Z,99484.69
2023-12-11T01:39:10.697Z,99484.85
2023-12-11T01:44:19.005Z,99480.98
2023-12-11T01:49:27.905Z,99477.39
2023-12-11T01:54:36.063Z,99471.87
2023-12-11T01:59:42.732Z,99468.79
2023-12-11T02:04:54.816Z,99473.58
2023-12-11T02:10:02.231Z,99472.34
2023-12-11T02:15:11.096Z,99467.50
2023-12-11T02:20:18.742Z,99465.23
2023-12-11T02:25:27.381Z,99458.52
2023-12-11T02:30:39.727Z,99439.52
2023-12-11T02:35:47.829Z,99423.21
2023-12-11T02:40:54.064Z,99413.87
2023-12-11T02:46:01.598Z,99415.52
2023-12-11T02:51:10.130Z,99412.73
2023-12-11T02:56:17.652Z,99407.27
2023-12-11T03:01:34.496Z,99400.23
2023-12-11T03:06:42.141Z,99396.50
2023-12-11T03:11:49.792Z,99391.77
2023-12-11T03:16:57.286Z,99387.31
2023-12-11T03:22:04.692Z,99383.25
2023-12-11T03:27:12.009Z,99376.48
2023-12-11T03:32:19.411Z,99371.52
2023-12-11T03:37:26.963Z,99366.61
2023-12-11T03:42:34.613Z,99368.99
2023-12-11T03:47:42.100Z,99365.32
2023-12-11T03:52:49.494Z,99360.94
2023-12-11T03:57:59.516Z,99353.98
2023-12-11T04:03:08.771Z,99350.68
2023-12-11T04:08:17.989Z,99349.44
2023-12-11T04:13:25.337Z,99345.55
2023-12-11T04:18:32.920Z,99342.07
2023-12-11T04:23:40.208Z,99334.07
2023-12-11T04:28:49.206Z,99328.73
2023-12-11T04:33:59.361Z,99328.86
2023-12-11T04:39:06.933Z,99323.20
2023-12-11T04:44:14.493Z,99315.88
2023-12-11T04:49:21.857Z,99311.09
2023-12-11T04:54:29.320Z,99303.04
2023-12-11T04:59:36.938Z,99291.81
2023-12-11T05:04:44.558Z,99275.45
2023-12-11T05:09:52.302Z,99268.80
2023-12-11T05:15:01.309Z,99262.61
2023-12-11T05:20:11.538Z,99261.46
2023-12-11T05:25:19.416Z,99257.10
2023-12-11T05:30:26.960Z,99256.35
2023-12-11T05:35:34.473Z,99250.30
2023-12-11T05:40:50.948Z,99238.95
2023-12-11T05:46:04.030Z,99232.13
2023-12-11T05:51:14.370Z,99226.86
2023-12-11T05:56:22.007Z,99218.50
2023-12-11T06:01:28.837Z,99205.85
2023-12-11T06:06:39.096Z,99198.80
2023-12-11T06:11:51.197Z,99184.02
2023-12-11T06:17:01.238Z,99181.60
2023-12-11T06:22:09.350Z,99178.79
2023-12-11T06:27:17.030Z,99176.29
2023-12-11T06:32:27.721Z,99172.74
2023-12-11T06:37:35.295Z,99166.61
2023-12-11T06:42:42.797Z,99163.03
2023-12-11T06:47:50.255Z,99156.84
2023-12-11T06:52:57.464Z,99147.05
2023-12-11T06:58:05.716Z,99144.77
2023-12-11T07:03:13.147Z,99137.05
2023-12-11T07:08:21.566Z,99132.27
2023-12-11T07:13:29.555Z,99128.27
2023-12-11T07:18:37.149Z,99118.66
2023-12-11T07:23:49.888Z,99109.02
2023-12-11T07:28:57.356Z,99096.81
2023-12-11T07:34:06.219Z,99097.59
2023-12-11T07:39:14.498Z,99094.71
2023-12-11T07:44:20.317Z,99090.64
2023-12-11T07:49:28.077Z,99085.48
2023-12-11T07:54:36.454Z,99082.79
2023-12-11T07:59:46.746Z,99081.21
2023-12-11T08:04:54.703Z,99075.57
2023-12-11T08:10:02.359Z,99072.91
2023-12-11T08:15:11.311Z,99063.64
2023-12-11T08:20:24.523Z,99064.08
2023-12-11T08:25:32.481Z,99052.30
2023-12-11T08:30:40.270Z,99046.52
2023-12-11T08:35:47.618Z,99043.64
2023-12-11T08:40:54.921Z,99036.16
2023-12-11T08:46:02.317Z,99036.17
2023-12-11T08:51:10.172Z,99034.02
2023-12-11T08:56:21.515Z,99030.40
2023-12-11T09:01:29.886Z,99028.39
2023-12-11T09:06:37.306Z,99029.02
2023-12-11T09:11:44.712Z,99026.01
2023-12-11T09:16:51.986Z,99025.15
2023-12-11T09:21:59.314Z,99020.51
2023-12-11T09:27:06.990Z,99012.91
2023-12-11T09:32:14.145Z,99004.34
2023-12-11T09:37:21.408Z,99003.81
2023-12-11T09:42:30.319Z,98995.93
2023-12-11T09:47:42.082Z,98995.35
2023-12-11T09:52:51.228Z,98986.67
2023-12-11T09:57:58.826Z,98982.27
2023-12-11T10:03:09.939Z,98981.69
2023-12-11T10:08:19.204Z,98975.52
2023-12-11T10:13:30.285Z,98977.41
2023-12-11T10:18:51.299Z,98971.78
2023-12-11T10:24:06.757Z,98969.46
2023-12-11T10:29:24.722Z,98968.39
2023-12-11T10:34:45.423Z,98960.98
2023-12-11T10:39:59.592Z,98960.26
2023-12-11T10:45:10.653Z,98958.98
2023-12-11T10:50:17.953Z,98954.63
2023-12-11T10:55:25.881Z,98957.45
2023-12-11T11:00:34.196Z,98957.86
2023-12-11T11:05:42.610Z,98957.00
2023-12-11T11:10:56.926Z,98947.27
2023-12-11T11:16:05.023Z,98947.01
2023-12-11T11:21:13.817Z,98946.38
2023-12-11T11:26:45.592Z,98950.42
2023-12-11T11:31:55.155Z,98955.00
2023-12-11T11:37:02.566Z,98957.71
2023-12-11T11:42:09.833Z,98964.71
2023-12-11T11:47:20.933Z,98963.77
2023-12-11T11:52:30.204Z,98967.95
2023-12-11T11:57:37.725Z,98970.75
2023-12-11T12:02:44.843Z,98976.92
2023-12-11T12:07:52.208Z,98971.52
2023-12-11T12:13:01.326Z,98974.80
2023-12-11T12:18:12.232Z,98977.39
2023-12-11T12:23:21.921Z,98973.73
2023-12-11T12:28:30.580Z,98979.29
2023-12-11T12:33:38.997Z,98982.48
2023-12-11T12:38:49.476Z,98980.94
2023-12-11T12:44:03.516Z,98977.52
2023-12-11T12:49:15.078Z,98983.34
2023-12-11T12:54:24.105Z,98981.65
2023-12-11T12:59:31.830Z,98981.21
2023-12-11T13:04:52.040Z,98980.73
2023-12-11T13:09:59.289Z,98981.14
2023-12-11T13:15:07.990Z,98990.14
2023-12-11T13:20:15.992Z,98993.84
2023-12-11T13:25:23.260Z,98992.93
2023-12-11T13:30:30.725Z,98991.92
2023-12-11T13:35:38.571Z,98995.23
2023-12-11T13:46:11.672Z,99011.66
2023-12-11T13:51:21.685Z,99013.44
2023-12-11T13:56:28.856Z,99019.80
2023-12-11T14:01:36.201Z,99025.55
2023-12-11T14:06:46.327Z,99030.90
2023-12-11T14:11:55.599Z,99031.08
2023-12-11T14:17:06.603Z,99031.20
2023-12-11T14:22:14.235Z,99033.69
2023-12-11T14:27:21.711Z,99036.71
2023-12-11T14:32:30.275Z,99037.83
2023-12-11T14:37:37.983Z,99044.65
2023-12-11T14:42:44.076Z,99047.80
2023-12-11T14:47:52.110Z,99049.98
2023-12-11T14:52:59.483Z,99055.09
2023-12-11T14:58:06.986Z,99059.85
2023-12-11T15:03:14.732Z,99060.58
2023-12-11T15:08:21.700Z,99059.29
2023-12-11T15:14:48.991Z,99056.36
2023-12-11T15:26:48.817Z,99060.45
2023-12-11T15:31:56.815Z,99059.52
2023-12-11T15:37:09.932Z,99064.84
2023-12-11T15:42:24.384Z,99064.58
2023-12-11T15:53:50.065Z,99071.45
2023-12-11T15:58:59.544Z,99068.41
2023-12-11T16:04:07.665Z,99066.27
2023-12-11T16:09:19.403Z,99067.98
2023-12-11T16:14:28.129Z,99071.89
2023-12-11T16:19:35.487Z,99072.55
2023-12-11T16:24:46.287Z,99071.11
2023-12-11T16:29:53.891Z,99067.20
2023-12-11T16:35:01.908Z,99063.02
2023-12-11T16:40:11.330Z,99066.33
2023-12-11T16:45:39.277Z,99066.02
2023-12-11T16:50:59.662Z,99065.22
2023-12-11T16:56:10.644Z,99066.70
2023-12-11T17:01:21.748Z,99065.40
2023-12-11T17:06:37.298Z,99067.82
2023-12-11T17:11:45.547Z,99066.69
2023-12-11T17:16:53.590Z,99072.21
2023-12-11T17:22:00.385Z,99073.90
2023-12-11T17:27:09.746Z,99076.36
2023-12-11T17:32:20.683Z,99080.54
2023-12-11T17:37:31.413Z,99078.80
2023-12-11T17:42:39.540Z,99081.81
2023-12-11T17:48:53.756Z,99079.23
2023-12-11T17:54:39.734Z,99083.15
2023-12-11T17:59:49.122Z,99079.61
2023-12-11T18:04:57.080Z,99078.44
2023-12-11T18:10:10.283Z,99081.81
2023-12-11T18:15:19.196Z,99079.81
2023-12-11T18:20:26.953Z,99080.32
2023-12-11T18:25:35.422Z,99078.98
2023-12-11T18:30:43.356Z,99083.06
2023-12-11T18:35:53.405Z,99080.20
2023-12-11T18:41:14.170Z,99082.41
2023-12-11T18:46:24.425Z,99090.13
2023-12-11T18:51:45.652Z,99091.48
2023-12-11T18:56:54.730Z,99093.09
2023-12-11T19:02:05.447Z,99093.67
2023-12-11T19:07:16.861Z,99096.05
2023-12-11T19:13:43.503Z,99096.32
2023-12-11T19:19:23.096Z,99094.92
2023-12-11T19:24:37.481Z,99094.65
2023-12-11T19:30:02.249Z,99101.38
2023-12-11T19:35:10.919Z,99105.01
2023-12-11T19:40:19.753Z,99103.77
2023-12-11T19:45:25.921Z,99106.55
2023-12-11T19:50:33.913Z,99108.46
2023-12-11T19:55:40.569Z,99113.05
2023-12-11T20:00:48.063Z,99119.38
2023-12-11T20:06:01.633Z,99121.77
2023-12-11T20:17:31.905Z,99132.48
2023-12-11T20:22:41.317Z,99138.25
2023-12-11T20:28:04.998Z,99141.50
2023-12-11T20:33:29.581Z,99144.83
2023-12-11T20:45:05.039Z,99157.70
2023-12-11T20:50:20.495Z,99163.45
2023-12-11T20:55:55.379Z,99171.77
2023-12-11T21:08:02.912Z,99184.73
2023-12-11T21:38:36.871Z,99210.09
2023-12-11T21:52:19.197Z,99226.34
2023-12-11T21:58:22.203Z,99232.69
2023-12-11T22:04:14.681Z,99238.79
2023-12-11T22:09:48.274Z,99247.96
2023-12-11T22:21:10.248Z,99258.47
2023-12-11T22:26:19.771Z,99258.88
2023-12-11T22:32:01.993Z,99264.62
2023-12-11T22:37:10.758Z,99274.50
2023-12-11T22:42:24.640Z,99276.20
2023-12-11T22:47:34.348Z,99284.44
2023-12-11T22:52:42.928Z,99285.27
2023-12-11T22:57:56.043Z,99284.56
2023-12-11T23:03:21.737Z,99294.66
2023-12-11T23:16:15.275Z,99303.71
2023-12-11T23:21:54.319Z,99309.27
2023-12-11T23:27:02.940Z,99311.23
2023-12-11T23:32:19.004Z,99318.15
2023-12-11T23:51:34.590Z,99339.27
